createdAt,value
2019-01-28T00:02:21.894Z,0.90
2019-01-28T00:04:53.228Z,0.90
2019-01-28T00:07:35.250Z,0.90
2019-01-28T00:10:03.547Z,0.90
2019-01-28T00:12:35.271Z,0.90
2019-01-28T00:15:05.017Z,0.90
2019-01-28T00:17:36.994Z,0.90
2019-01-28T00:20:08.226Z,0.80
2019-01-28T00:22:44.988Z,0.80
2019-01-28T00:25:14.138Z,0.70
2019-01-28T00:27:44.587Z,0.60
2019-01-28T00:30:13.313Z,0.60
2019-01-28T00:32:42.224Z,0.50
2019-01-28T00:35:12.379Z,0.50
2019-01-28T00:37:41.029Z,0.40
2019-01-28T00:40:11.786Z,0.40
2019-01-28T00:42:42.004Z,0.40
2019-01-28T00:45:20.191Z,0.40
2019-01-28T00:47:57.105Z,0.40
2019-01-28T00:50:26.112Z,0.30
2019-01-28T00:52:56.443Z,0.40
2019-01-28T00:55:29.436Z,0.30
2019-01-28T00:57:57.964Z,0.30
2019-01-28T01:00:26.672Z,0.30
2019-01-28T01:03:05.453Z,0.20
2019-01-28T01:05:36.435Z,0.30
2019-01-28T01:08:07.480Z,0.30
2019-01-28T01:10:38.781Z,0.30
2019-01-28T01:13:10.107Z,0.30
2019-01-28T01:15:38.751Z,0.30
2019-01-28T01:18:07.546Z,0.30
2019-01-28T01:20:39.901Z,0.40
2019-01-28T01:23:08.530Z,0.40
2019-01-28T01:25:38.361Z,0.40
2019-01-28T01:28:08.430Z,0.40
2019-01-28T01:30:38.524Z,0.40
2019-01-28T01:33:08.562Z,0.40
2019-01-28T01:35:37.155Z,0.40
2019-01-28T01:38:06.286Z,0.40
2019-01-28T01:40:34.889Z,0.40
2019-01-28T01:43:04.854Z,0.40
2019-01-28T01:45:34.025Z,0.40
2019-01-28T01:48:05.427Z,0.40
2019-01-28T01:50:34.311Z,0.40
2019-01-28T01:53:03.253Z,0.40
2019-01-28T01:55:31.855Z,0.40
2019-01-28T01:58:12.995Z,0.40
2019-01-28T02:00:43.923Z,0.40
2019-01-28T02:03:17.248Z,0.40
2019-01-28T02:05:49.820Z,0.40
2019-01-28T02:08:18.483Z,0.40
2019-01-28T02:10:48.757Z,0.40
2019-01-28T02:13:18.042Z,0.40
2019-01-28T02:15:52.198Z,0.40
2019-01-28T02:18:21.989Z,0.40
2019-01-28T02:20:51.824Z,0.40
2019-01-28T02:23:24.297Z,0.40
2019-01-28T02:25:52.919Z,0.40
2019-01-28T02:28:25.769Z,0.40
2019-01-28T02:30:54.371Z,0.40
2019-01-28T02:33:23.136Z,0.40
2019-01-28T02:35:51.853Z,0.40
2019-01-28T02:38:23.567Z,0.40
2019-01-28T02:40:52.181Z,0.40
2019-01-28T02:43:25.348Z,0.40
2019-01-28T02:45:57.801Z,0.40
2019-01-28T02:48:34.425Z,0.40
2019-01-28T02:51:03.017Z,0.40
2019-01-28T02:53:31.715Z,0.40
2019-01-28T02:56:01.076Z,0.40
2019-01-28T02:58:36.513Z,0.40
2019-01-28T03:01:05.671Z,0.40
2019-01-28T03:03:38.788Z,0.40
2019-01-28T03:06:07.635Z,0.40
2019-01-28T03:08:38.562Z,0.50
2019-01-28T03:11:18.767Z,0.50
2019-01-28T03:13:49.360Z,0.50
2019-01-28T03:16:19.484Z,0.50
2019-01-28T03:18:50.032Z,0.50
2019-01-28T03:21:31.613Z,0.50
2019-01-28T03:24:01.784Z,0.50
2019-01-28T03:26:32.501Z,0.50
2019-01-28T03:29:02.800Z,0.50
2019-01-28T03:31:34.515Z,0.50
2019-01-28T03:34:07.102Z,0.50
2019-01-28T03:39:35.914Z,0.50
2019-01-28T03:42:05.783Z,0.50
2019-01-28T03:44:36.529Z,0.50
2019-01-28T03:47:05.455Z,0.50
2019-01-28T03:49:37.933Z,0.60
2019-01-28T03:52:15.791Z,0.50
2019-01-28T03:54:46.436Z,0.60
2019-01-28T03:57:15.026Z,0.60
2019-01-28T04:00:00.369Z,0.60
2019-01-28T04:02:29.663Z,0.60
2019-01-28T04:04:59.962Z,0.60
2019-01-28T04:07:28.527Z,0.60
2019-01-28T04:09:57.195Z,0.60
2019-01-28T04:12:28.619Z,0.60
2019-01-28T04:15:00.528Z,0.60
2019-01-28T04:17:29.152Z,0.60
2019-01-28T04:19:59.577Z,0.60
2019-01-28T04:22:33.062Z,0.60
2019-01-28T04:25:01.747Z,0.60
2019-01-28T04:27:30.405Z,0.60
2019-01-28T04:30:02.834Z,0.60
2019-01-28T04:32:31.778Z,0.60
2019-01-28T04:35:00.366Z,0.60
2019-01-28T04:37:33.482Z,0.60
2019-01-28T04:40:02.149Z,0.60
2019-01-28T04:42:31.535Z,0.60
2019-01-28T04:45:01.524Z,0.60
2019-01-28T04:47:31.711Z,0.60
2019-01-28T04:50:00.339Z,0.60
2019-01-28T04:52:32.043Z,0.60
2019-01-28T04:55:01.802Z,0.60
2019-01-28T04:57:36.499Z,0.60
2019-01-28T05:00:11.010Z,0.60
2019-01-28T05:02:46.456Z,0.60
2019-01-28T05:05:15.120Z,0.60
2019-01-28T05:07:46.619Z,0.60
2019-01-28T05:10:19.917Z,0.60
2019-01-28T05:12:48.627Z,0.60
2019-01-28T05:15:19.243Z,0.50
2019-01-28T05:17:52.401Z,0.50
2019-01-28T05:20:27.603Z,0.50
2019-01-28T05:22:59.438Z,0.50
2019-01-28T05:25:29.135Z,0.50
2019-01-28T05:27:57.771Z,0.50
2019-01-28T05:30:31.191Z,0.50
2019-01-28T05:33:01.455Z,0.50
2019-01-28T05:35:42.864Z,0.50
2019-01-28T05:38:13.138Z,0.50
2019-01-28T05:40:43.092Z,0.50
2019-01-28T05:43:16.721Z,0.50
2019-01-28T05:45:47.262Z,0.50
2019-01-28T05:48:15.841Z,0.50
2019-01-28T05:50:47.040Z,0.50
2019-01-28T05:53:17.981Z,0.50
2019-01-28T05:55:47.691Z,0.50
2019-01-28T05:58:17.980Z,0.50
2019-01-28T06:00:47.792Z,0.50
2019-01-28T06:03:27.036Z,0.50
2019-01-28T06:05:57.252Z,0.50
2019-01-28T06:08:35.165Z,0.50
2019-01-28T06:11:04.947Z,0.50
2019-01-28T06:13:35.672Z,0.50
2019-01-28T06:16:05.437Z,0.50
2019-01-28T06:18:35.500Z,0.40
2019-01-28T06:21:04.864Z,0.40
2019-01-28T06:23:39.864Z,0.40
2019-01-28T06:26:10.637Z,0.40
2019-01-28T06:28:42.986Z,0.40
2019-01-28T06:31:24.444Z,0.40
2019-01-28T06:33:56.442Z,0.30
2019-01-28T06:36:27.532Z,0.30
2019-01-28T06:39:04.998Z,0.40
2019-01-28T06:41:33.692Z,0.40
2019-01-28T06:44:03.807Z,0.40
2019-01-28T06:46:32.396Z,0.40
2019-01-28T06:49:03.062Z,0.40
2019-01-28T06:51:33.295Z,0.40
2019-01-28T06:54:05.133Z,0.40
2019-01-28T06:56:34.809Z,0.40
2019-01-28T06:59:03.455Z,0.40
2019-01-28T07:01:34.547Z,0.40
2019-01-28T07:04:07.919Z,0.50
2019-01-28T07:06:37.979Z,0.50
2019-01-28T07:09:11.007Z,0.40
2019-01-28T07:11:41.430Z,0.50
2019-01-28T07:14:11.729Z,0.50
2019-01-28T07:16:42.088Z,0.50
2019-01-28T07:19:10.650Z,0.50
2019-01-28T07:21:40.826Z,0.50
2019-01-28T07:24:09.481Z,0.50
2019-01-28T07:26:41.267Z,0.50
2019-01-28T07:29:13.470Z,0.60
2019-01-28T07:31:47.098Z,0.60
2019-01-28T07:34:15.725Z,0.60
2019-01-28T07:36:44.355Z,0.60
2019-01-28T07:39:13.026Z,0.60
2019-01-28T07:41:44.706Z,0.60
2019-01-28T07:44:16.490Z,0.60
2019-01-28T07:46:46.160Z,0.60
2019-01-28T07:49:14.975Z,0.60
2019-01-28T07:51:43.540Z,0.60
2019-01-28T07:54:12.120Z,0.70
2019-01-28T07:56:42.681Z,0.70
2019-01-28T07:59:11.200Z,0.70
2019-01-28T08:01:40.535Z,0.70
2019-01-28T08:04:12.749Z,0.70
2019-01-28T08:06:43.154Z,0.70
2019-01-28T08:09:11.903Z,0.70
2019-01-28T08:11:42.524Z,0.70
2019-01-28T08:14:12.737Z,0.70
2019-01-28T08:16:45.711Z,0.80
2019-01-28T08:19:19.522Z,0.80
2019-01-28T08:21:50.615Z,0.90
2019-01-28T08:24:19.246Z,0.90
2019-01-28T08:26:48.500Z,0.90
2019-01-28T08:29:16.997Z,1.00
2019-01-28T08:31:47.713Z,1.00
2019-01-28T08:34:18.472Z,1.00
2019-01-28T08:36:47.074Z,1.00
2019-01-28T08:39:15.759Z,1.00
2019-01-28T08:41:44.352Z,1.10
2019-01-28T08:44:12.947Z,1.20
2019-01-28T08:46:41.531Z,1.30
2019-01-28T08:49:10.014Z,1.20
2019-01-28T08:51:38.606Z,1.40
2019-01-28T08:54:07.090Z,1.40
2019-01-28T08:56:35.637Z,1.40
2019-01-28T08:59:05.756Z,1.30
2019-01-28T09:01:35.063Z,1.30
2019-01-28T09:04:06.045Z,1.10
2019-01-28T09:06:36.283Z,1.10
2019-01-28T09:09:07.917Z,1.10
2019-01-28T09:11:36.573Z,1.10
2019-01-28T09:14:07.240Z,1.10
2019-01-28T09:16:36.567Z,1.10
2019-01-28T09:19:05.853Z,1.00
2019-01-28T09:21:34.392Z,1.00
2019-01-28T09:24:03.047Z,1.00
2019-01-28T09:26:36.537Z,1.10
2019-01-28T09:29:07.846Z,1.10
2019-01-28T09:31:41.726Z,1.10
2019-01-28T09:34:11.865Z,1.20
2019-01-28T09:36:40.572Z,1.30
2019-01-28T09:39:09.267Z,1.40
2019-01-28T09:41:37.868Z,1.50
2019-01-28T09:44:07.039Z,1.50
2019-01-28T09:46:37.435Z,1.50
2019-01-28T09:49:06.046Z,1.50
2019-01-28T09:51:36.921Z,1.40
2019-01-28T09:54:07.233Z,1.50
2019-01-28T09:56:39.738Z,1.60
2019-01-28T09:59:27.934Z,1.60
2019-01-28T10:01:56.613Z,1.60
2019-01-28T10:04:25.213Z,1.60
2019-01-28T10:06:53.726Z,1.80
2019-01-28T10:09:22.237Z,1.80
2019-01-28T10:11:52.326Z,2.00
2019-01-28T10:14:23.568Z,1.90
2019-01-28T10:16:52.082Z,1.80
2019-01-28T10:19:20.547Z,1.90
2019-01-28T10:21:52.164Z,1.80
2019-01-28T10:24:24.146Z,1.70
2019-01-28T10:26:52.928Z,1.70
2019-01-28T10:29:21.531Z,1.60
2019-01-28T10:31:50.076Z,1.60
2019-01-28T10:34:18.664Z,1.60
2019-01-28T10:36:52.131Z,1.60
2019-01-28T10:39:22.247Z,1.50
2019-01-28T10:41:54.034Z,1.50
2019-01-28T10:44:24.217Z,1.60
2019-01-28T10:46:52.727Z,1.60
2019-01-28T10:49:21.205Z,1.60
2019-01-28T10:51:49.785Z,1.80
2019-01-28T10:54:19.462Z,2.00
2019-01-28T10:56:48.020Z,1.90
2019-01-28T10:59:16.529Z,2.10
2019-01-28T11:01:45.082Z,2.30
2019-01-28T11:04:13.677Z,2.20
2019-01-28T11:06:42.795Z,2.30
2019-01-28T11:09:11.418Z,2.40
2019-01-28T11:11:40.184Z,2.70
2019-01-28T11:14:08.800Z,3.00
2019-01-28T11:16:37.492Z,3.20
2019-01-28T11:19:06.146Z,2.90
2019-01-28T11:21:34.822Z,2.80
2019-01-28T11:24:03.848Z,2.50
2019-01-28T11:26:32.430Z,2.40
2019-01-28T11:29:00.983Z,2.30
2019-01-28T11:31:29.693Z,2.50
2019-01-28T11:33:58.433Z,2.50
2019-01-28T11:36:27.335Z,2.40
2019-01-28T11:38:56.833Z,2.30
2019-01-28T11:41:27.212Z,2.00
2019-01-28T11:43:56.318Z,1.80
2019-01-28T11:46:25.671Z,1.60
2019-01-28T11:48:54.340Z,1.50
2019-01-28T11:51:25.625Z,1.50
2019-01-28T11:53:54.249Z,1.50
2019-01-28T11:56:22.901Z,1.40
2019-01-28T11:58:51.423Z,1.50
2019-01-28T12:01:23.828Z,1.50
2019-01-28T12:03:55.075Z,1.30
2019-01-28T12:06:27.662Z,1.20
2019-01-28T12:08:56.306Z,1.40
2019-01-28T12:11:24.764Z,1.80
2019-01-28T12:13:53.352Z,2.40
2019-01-28T12:16:22.100Z,2.90
2019-01-28T12:18:50.680Z,3.40
2019-01-28T12:21:20.912Z,3.60
2019-01-28T12:23:49.513Z,3.20
2019-01-28T12:26:18.114Z,3.00
2019-01-28T12:28:46.912Z,3.30
2019-01-28T12:31:15.512Z,3.50
2019-01-28T12:33:44.098Z,3.50
2019-01-28T12:36:12.790Z,3.60
2019-01-28T12:38:41.359Z,3.50
2019-01-28T12:41:17.529Z,3.40
2019-01-28T12:43:43.464Z,3.00
2019-01-28T12:46:12.045Z,2.70
2019-01-28T12:48:40.599Z,2.70
2019-01-28T12:51:11.042Z,2.70
2019-01-28T12:53:39.697Z,2.70
2019-01-28T12:56:10.524Z,2.70
2019-01-28T12:58:39.064Z,2.90
2019-01-28T13:01:12.630Z,2.80
2019-01-28T13:03:41.372Z,2.70
2019-01-28T13:06:10.013Z,2.70
2019-01-28T13:08:38.550Z,2.60
2019-01-28T13:11:07.218Z,2.70
2019-01-28T13:13:40.970Z,2.80
2019-01-28T13:16:06.326Z,2.90
2019-01-28T13:18:34.836Z,3.00
2019-01-28T13:21:03.293Z,2.80
2019-01-28T13:23:31.817Z,2.80
2019-01-28T13:26:00.328Z,2.60
2019-01-28T13:28:28.799Z,2.70
2019-01-28T13:30:57.372Z,2.70
2019-01-28T13:33:26.073Z,2.70
2019-01-28T13:35:54.585Z,2.60
2019-01-28T13:38:23.150Z,2.60
2019-01-28T13:40:51.706Z,2.50
2019-01-28T13:43:20.281Z,2.30
2019-01-28T13:45:48.808Z,2.30
2019-01-28T13:48:17.407Z,2.30
2019-01-28T13:50:47.584Z,2.20
2019-01-28T13:53:19.484Z,2.20
2019-01-28T13:55:48.087Z,2.10
2019-01-28T13:58:21.953Z,2.30
2019-01-28T14:00:50.656Z,2.30
2019-01-28T14:03:22.388Z,2.30
2019-01-28T14:05:50.863Z,2.40
2019-01-28T14:08:20.114Z,2.40
2019-01-28T14:10:50.246Z,2.30
2019-01-28T14:13:21.965Z,2.20
2019-01-28T14:15:50.535Z,2.00
2019-01-28T14:18:20.850Z,1.80
2019-01-28T14:20:53.609Z,1.70
2019-01-28T14:23:24.114Z,1.60
2019-01-28T14:25:53.842Z,1.60
2019-01-28T14:28:22.414Z,1.40
2019-01-28T14:30:52.385Z,1.30
2019-01-28T14:33:21.326Z,1.20
2019-01-28T14:35:52.056Z,1.10
2019-01-28T14:38:23.371Z,1.10
2019-01-28T14:40:54.919Z,1.00
2019-01-28T14:43:25.660Z,0.90
2019-01-28T14:45:58.722Z,0.90
2019-01-28T14:48:27.564Z,0.80
2019-01-28T14:50:57.909Z,0.90
2019-01-28T14:53:28.590Z,0.80
2019-01-28T14:56:02.289Z,0.80
2019-01-28T14:58:31.490Z,0.90
2019-01-28T15:01:03.326Z,0.80
2019-01-28T15:03:36.567Z,0.70
2019-01-28T15:06:07.920Z,0.80
2019-01-28T15:08:39.330Z,0.80
2019-01-28T15:11:10.719Z,0.80
2019-01-28T15:13:40.635Z,0.80
2019-01-28T15:16:12.100Z,0.80
2019-01-28T15:18:40.675Z,0.80
2019-01-28T15:21:09.709Z,0.80
2019-01-28T15:23:39.900Z,0.80
2019-01-28T15:26:15.750Z,0.80
2019-01-28T15:28:41.861Z,0.80
2019-01-28T15:31:10.483Z,0.70
2019-01-28T15:33:44.776Z,0.70
2019-01-28T15:36:15.206Z,0.50
2019-01-28T15:38:45.381Z,0.50
2019-01-28T15:41:13.878Z,0.50
2019-01-28T15:43:42.469Z,0.50
2019-01-28T15:46:11.679Z,0.40
2019-01-28T15:48:40.347Z,0.30
2019-01-28T15:51:11.056Z,0.20
2019-01-28T15:53:45.484Z,0.20
2019-01-28T15:56:17.491Z,0.20
2019-01-28T15:58:47.805Z,0.20
2019-01-28T16:01:19.769Z,0.10
2019-01-28T16:03:48.486Z,0.10
2019-01-28T16:06:17.667Z,0.10
2019-01-28T16:08:47.957Z,0.10
2019-01-28T16:11:19.809Z,0.00
2019-01-28T16:13:48.798Z,0.00
2019-01-28T16:16:19.008Z,0.00
2019-01-28T16:19:11.959Z,0.00
2019-01-28T16:24:41.440Z,0.00
2019-01-28T16:27:09.974Z,0.00
2019-01-28T16:29:39.585Z,0.00
2019-01-28T16:32:14.983Z,0.00
2019-01-28T16:38:10.209Z,0.00
2019-01-28T16:40:40.088Z,0.00
2019-01-28T16:43:08.938Z,0.00
2019-01-28T16:45:39.003Z,0.00
2019-01-28T16:48:15.378Z,0.00
2019-01-28T16:50:59.365Z,0.00
2019-01-28T16:56:29.339Z,-0.20
2019-01-28T16:59:06.943Z,-0.20
2019-01-28T17:01:48.453Z,-0.20
2019-01-28T17:04:17.348Z,-0.20
2019-01-28T17:06:51.421Z,-0.20
2019-01-28T17:09:20.088Z,-0.30
2019-01-28T17:21:07.215Z,-0.40
2019-01-28T17:26:32.995Z,-0.40
2019-01-28T17:29:05.139Z,-0.40
2019-01-28T17:31:40.839Z,-0.40
2019-01-28T17:40:11.478Z,-0.40
2019-01-28T17:50:26.415Z,-0.40
2019-01-28T17:52:55.876Z,-0.40
2019-01-28T17:59:46.431Z,-0.40
2019-01-28T18:02:22.815Z,-0.40
2019-01-28T18:04:53.808Z,-0.30
2019-01-28T18:07:22.786Z,-0.40
2019-01-28T18:10:06.069Z,-0.40
2019-01-28T18:12:48.777Z,-0.30
2019-01-28T18:15:34.351Z,-0.30
2019-01-28T18:18:16.408Z,-0.30
2019-01-28T18:20:52.038Z,-0.30
2019-01-28T18:23:23.543Z,-0.30
2019-01-28T18:25:56.194Z,-0.30
2019-01-28T18:28:31.103Z,-0.30
2019-01-28T18:31:04.891Z,-0.30
2019-01-28T18:33:37.835Z,-0.30
2019-01-28T18:36:06.879Z,-0.30
2019-01-28T18:38:41.073Z,-0.20
2019-01-28T18:50:07.108Z,-0.20
2019-01-28T18:52:37.764Z,-0.20
2019-01-28T18:55:21.937Z,-0.20
2019-01-28T18:57:53.216Z,-0.20
2019-01-28T19:00:46.032Z,-0.20
2019-01-28T19:03:13.522Z,-0.10
2019-01-28T19:06:13.519Z,-0.10
2019-01-28T19:09:00.491Z,-0.20
2019-01-28T19:11:48.128Z,-0.20
2019-01-28T19:14:47.637Z,-0.20
2019-01-28T19:17:26.660Z,-0.20
2019-01-28T19:20:01.382Z,-0.20
2019-01-28T19:22:37.551Z,-0.10
2019-01-28T19:25:23.000Z,-0.10
2019-01-28T19:27:54.801Z,-0.10
2019-01-28T19:30:29.585Z,-0.10
2019-01-28T19:33:00.219Z,-0.10
2019-01-28T19:35:33.120Z,0.00
2019-01-28T19:41:18.790Z,0.00
2019-01-28T19:44:09.536Z,0.00
2019-01-28T19:46:53.025Z,0.00
2019-01-28T19:49:22.704Z,0.00
2019-01-28T19:51:51.809Z,0.00
2019-01-28T19:54:21.485Z,0.10
2019-01-28T19:56:52.977Z,0.10
2019-01-28T19:59:23.046Z,0.10
2019-01-28T20:01:56.148Z,0.20
2019-01-28T20:04:27.126Z,0.20
2019-01-28T20:06:57.264Z,0.20
2019-01-28T20:09:26.302Z,0.20
2019-01-28T20:11:55.331Z,0.20
2019-01-28T20:14:30.257Z,0.20
2019-01-28T20:16:59.474Z,0.20
2019-01-28T20:19:29.226Z,0.20
2019-01-28T20:21:59.910Z,0.20
2019-01-28T20:24:32.124Z,0.30
2019-01-28T20:27:24.646Z,0.30
2019-01-28T20:29:58.202Z,0.30
2019-01-28T20:32:29.115Z,0.30
2019-01-28T20:35:04.966Z,0.30
2019-01-28T20:37:33.993Z,0.30
2019-01-28T20:40:04.625Z,0.30
2019-01-28T20:42:35.490Z,0.30
2019-01-28T20:45:07.605Z,0.30
2019-01-28T20:47:37.803Z,0.30
2019-01-28T20:50:10.499Z,0.20
2019-01-28T20:52:47.024Z,0.30
2019-01-28T20:58:13.841Z,0.20
2019-01-28T21:00:45.942Z,0.20
2019-01-28T21:03:15.678Z,0.20
2019-01-28T21:05:46.686Z,0.20
2019-01-28T21:08:20.243Z,0.20
2019-01-28T21:10:50.847Z,0.20
2019-01-28T21:13:21.588Z,0.20
2019-01-28T21:15:51.895Z,0.20
2019-01-28T21:18:23.821Z,0.10
2019-01-28T21:20:53.900Z,0.10
2019-01-28T21:23:25.697Z,0.00
2019-01-28T21:26:00.871Z,0.00
2019-01-28T21:28:28.823Z,0.00
2019-01-28T21:30:59.866Z,0.00
2019-01-28T21:33:28.853Z,-0.10
2019-01-28T21:36:05.412Z,-0.10
2019-01-28T21:38:36.918Z,-0.10
2019-01-28T21:41:12.947Z,-0.10
2019-01-28T21:43:41.665Z,-0.20
2019-01-28T21:46:11.155Z,-0.20
2019-01-28T21:48:40.034Z,-0.20
2019-01-28T21:51:17.932Z,-0.10
2019-01-28T21:53:42.584Z,-0.20
2019-01-28T21:56:12.032Z,-0.10
2019-01-28T21:58:44.243Z,-0.10
2019-01-28T22:01:15.270Z,-0.10
2019-01-28T22:03:46.787Z,-0.10
2019-01-28T22:06:15.443Z,-0.10
2019-01-28T22:08:45.410Z,-0.10
2019-01-28T22:11:28.112Z,-0.10
2019-01-28T22:14:01.046Z,-0.10
2019-01-28T22:16:31.594Z,-0.10
2019-01-28T22:19:00.159Z,-0.10
2019-01-28T22:21:28.836Z,-0.10
2019-01-28T22:23:59.499Z,-0.10
2019-01-28T22:26:28.940Z,-0.10
2019-01-28T22:28:59.384Z,-0.10
2019-01-28T22:31:28.606Z,-0.10
2019-01-28T22:33:59.890Z,-0.10
2019-01-28T22:36:30.288Z,-0.10
2019-01-28T22:38:59.240Z,-0.10
2019-01-28T22:41:34.123Z,-0.20
2019-01-28T22:44:05.447Z,-0.20
2019-01-28T22:46:35.570Z,-0.20
2019-01-28T22:49:07.142Z,-0.20
2019-01-28T22:51:35.672Z,-0.20
2019-01-28T22:54:05.031Z,-0.20
2019-01-28T22:56:33.738Z,-0.20
2019-01-28T22:59:05.784Z,-0.20
2019-01-28T23:01:38.816Z,-0.20
2019-01-28T23:04:07.413Z,-0.10
2019-01-28T23:06:36.582Z,-0.10
2019-01-28T23:09:10.675Z,-0.10
2019-01-28T23:11:40.977Z,0.00
2019-01-28T23:14:14.215Z,0.00
2019-01-28T23:16:42.844Z,0.00
2019-01-28T23:19:11.985Z,0.00
2019-01-28T23:21:42.623Z,0.10
2019-01-28T23:24:11.245Z,0.00
2019-01-28T23:26:42.879Z,0.00
2019-01-28T23:29:14.326Z,0.10
2019-01-28T23:31:44.204Z,0.00
2019-01-28T23:34:13.495Z,0.00
2019-01-28T23:36:42.030Z,0.10
2019-01-28T23:39:13.415Z,0.00
2019-01-28T23:41:45.474Z,0.00
2019-01-28T23:44:14.881Z,0.00
2019-01-28T23:46:46.227Z,0.00
2019-01-28T23:49:15.325Z,0.00
2019-01-28T23:51:45.361Z,-0.10
2019-01-28T23:54:15.556Z,-0.10
2019-01-28T23:56:53.506Z,-0.20
2019-01-28T23:59:19.004Z,-0.30
